Time;durP1;ratioP1;P1;durP2;ratioP2;P2;SDS_P1;SDS_P2;PMS_P1;PMS_P2;Temp;Humidity;BMP_temperature;BMP_pressure;BME280_temperature;BME280_humidity;BME280_pressure;Samples;Min_cycle;Max_cycle;Signal;HPM_P1;HPM_P2
2021/07/09 00:02:18;;;;;;;25.90;21.27;;;;;;;18.54;84.64;100706.94;1758676;81;20987;-70
2021/07/09 00:04:45;;;;;;;25.17;21.85;;;;;;;18.54;84.66;100702.38;1759036;81;21146;-70
2021/07/09 00:07:11;;;;;;;26.37;22.25;;;;;;;18.55;84.70;100700.47;1758534;81;21054;-70
2021/07/09 00:09:37;;;;;;;27.15;22.90;;;;;;;18.55;84.75;100704.01;1759551;80;21088;-70
2021/07/09 00:12:03;;;;;;;31.12;22.70;;;;;;;18.56;84.78;100704.84;1758918;81;20987;-70
2021/07/09 00:14:32;;;;;;;28.95;21.75;;;;;;;18.57;84.81;100695.70;1758804;81;20978;-70
2021/07/09 00:16:58;;;;;;;28.90;22.62;;;;;;;18.58;84.86;100697.38;1758948;81;21727;-70
2021/07/09 00:19:24;;;;;;;29.95;22.87;;;;;;;18.60;84.88;100707.42;1757788;81;20983;-70
2021/07/09 00:21:50;;;;;;;27.50;23.98;;;;;;;18.59;84.89;100711.16;1758880;81;21109;-70
2021/07/09 00:24:17;;;;;;;28.50;22.52;;;;;;;18.59;84.91;100720.62;1761874;80;20990;-70
2021/07/09 00:26:43;;;;;;;26.85;23.35;;;;;;;18.59;84.97;100713.34;1790076;79;21073;-71
2021/07/09 00:29:09;;;;;;;28.90;23.77;;;;;;;18.59;84.97;100712.00;1789615;79;21081;-70
2021/07/09 00:31:35;;;;;;;32.17;23.95;;;;;;;18.58;85.01;100706.83;1786673;80;20983;-70
2021/07/09 00:34:05;;;;;;;29.67;24.82;;;;;;;18.57;85.05;100707.86;1780436;80;21603;-70
2021/07/09 00:36:32;;;;;;;34.27;24.72;;;;;;;18.57;85.07;100706.51;1780282;79;21015;-70
2021/07/09 00:39:00;;;;;;;30.12;23.77;;;;;;;18.56;85.10;100717.83;1780405;80;21007;-71
2021/07/09 00:41:26;;;;;;;27.13;23.98;;;;;;;18.56;85.13;100711.08;1779759;79;21231;-70
2021/07/09 00:43:52;;;;;;;29.67;24.20;;;;;;;18.58;85.17;100696.02;1778392;80;21627;-70
2021/07/09 00:46:31;;;;;;;29.90;23.95;;;;;;;18.59;85.20;100692.25;1780428;80;20979;-70
2021/07/09 00:48:57;;;;;;;33.33;24.72;;;;;;;18.58;85.22;100693.32;1780449;80;20984;-70
2021/07/09 00:51:23;;;;;;;26.05;23.20;;;;;;;18.57;85.25;100690.30;1780457;80;21027;-70
2021/07/09 00:53:49;;;;;;;27.85;24.02;;;;;;;18.58;85.30;100690.62;1756479;79;21044;-70
2021/07/09 00:56:15;;;;;;;33.92;25.15;;;;;;;18.57;85.32;100679.50;1749555;82;21556;-70
2021/07/09 00:58:41;;;;;;;32.28;23.95;;;;;;;18.57;85.35;100670.87;1749498;81;20997;-70
2021/07/09 01:01:07;;;;;;;32.80;25.92;;;;;;;18.58;85.38;100661.70;1749155;82;21073;-70
2021/07/09 01:03:34;;;;;;;28.92;24.52;;;;;;;18.58;85.42;100655.50;1769493;80;20987;-70
2021/07/09 01:06:00;;;;;;;36.50;25.70;;;;;;;18.58;85.45;100648.75;1780430;80;21154;-70
2021/07/09 01:08:26;;;;;;;32.85;25.50;;;;;;;18.59;85.46;100658.48;1780280;80;20964;-70
2021/07/09 01:10:52;;;;;;;34.25;24.85;;;;;;;18.59;85.46;100654.43;1780598;80;20983;-70
2021/07/09 01:13:18;;;;;;;29.92;24.47;;;;;;;18.59;85.50;100658.48;1763928;80;20968;-70
2021/07/09 01:15:44;;;;;;;34.58;25.17;;;;;;;18.59;85.53;100646.33;1749777;80;21058;-71
2021/07/09 01:18:10;;;;;;;35.43;27.87;;;;;;;18.60;85.53;100633.97;1749627;81;21148;-70
2021/07/09 01:20:36;;;;;;;32.63;27.48;;;;;;;18.58;85.58;100621.73;1749171;82;21321;-70
2021/07/09 01:23:02;;;;;;;34.95;26.02;;;;;;;18.56;85.59;100635.95;1761801;80;21849;-70
2021/07/09 01:25:29;;;;;;;30.02;25.80;;;;;;;18.55;85.60;100643.75;1780354;80;21481;-71
2021/07/09 01:28:07;;;;;;;30.02;25.55;;;;;;;18.56;85.66;100640.84;1766832;80;21441;-71
2021/07/09 01:30:34;;;;;;;35.78;27.55;;;;;;;18.58;85.69;100633.89;1751197;80;22011;-71
2021/07/09 01:33:00;;;;;;;30.92;25.60;;;;;;;18.57;85.71;100629.00;1748819;81;21000;-71
2021/07/09 01:35:27;;;;;;;33.95;26.42;;;;;;;18.56;85.70;100627.86;1749489;81;21008;-71
2021/07/09 01:38:03;;;;;;;33.02;26.57;;;;;;;18.55;85.76;100620.78;1759234;80;21035;-70
2021/07/09 01:40:30;;;;;;;34.50;25.92;;;;;;;18.56;85.78;100611.64;1780456;79;20972;-71
2021/07/09 01:42:56;;;;;;;32.50;25.90;;;;;;;18.57;85.79;100610.61;1780001;80;21171;-71
2021/07/09 01:45:22;;;;;;;29.80;26.12;;;;;;;18.58;85.83;100609.58;1780439;80;21519;-70
2021/07/09 01:47:49;;;;;;;35.68;26.45;;;;;;;18.58;85.82;100609.02;1771071;80;21082;-71
2021/07/09 01:50:16;;;;;;;30.65;25.32;;;;;;;18.58;85.84;100602.27;1749420;81;21360;-71
2021/07/09 01:52:42;;;;;;;34.03;26.62;;;;;;;18.58;85.86;100602.83;1749467;82;21138;-71
2021/07/09 01:55:09;;;;;;;33.20;25.02;;;;;;;18.58;85.88;100598.77;1748925;81;21387;-70
2021/07/09 01:57:35;;;;;;;32.63;28.35;;;;;;;18.58;85.87;100598.77;1770900;80;21122;-71
2021/07/09 02:00:05;;;;;;;35.78;26.17;;;;;;;18.57;85.91;100599.29;1749251;82;21534;-71
2021/07/09 02:02:31;;;;;;;31.37;26.25;;;;;;;18.57;85.93;100593.89;1749420;80;20992;-71
2021/07/09 02:04:57;;;;;;;34.03;27.42;;;;;;;18.55;85.93;100584.32;1749415;81;21067;-71
2021/07/09 02:07:24;;;;;;;31.48;26.60;;;;;;;18.53;85.95;100577.80;1752878;80;21538;-71
2021/07/09 02:09:54;;;;;;;35.63;28.02;;;;;;;18.51;85.98;100565.56;1780383;79;20928;-71
2021/07/09 02:12:22;;;;;;;35.08;25.92;;;;;;;18.47;85.98;100560.54;1780279;79;20999;-70
2021/07/09 02:14:49;;;;;;;36.93;27.13;;;;;;;18.44;86.04;100554.23;1780412;79;21622;-71
2021/07/09 02:17:17;;;;;;;32.13;26.48;;;;;;;18.43;86.05;100549.06;1779394;80;21027;-71
2021/07/09 02:19:45;;;;;;;32.50;27.87;;;;;;;18.42;86.10;100549.58;1749658;81;21524;-70
2021/07/09 02:22:13;;;;;;;38.53;26.77;;;;;;;18.42;86.12;100544.17;1749392;82;21003;-71
2021/07/09 02:24:41;;;;;;;40.38;27.05;;;;;;;18.41;86.13;100550.62;1749392;81;20983;-70
2021/07/09 02:27:07;;;;;;;34.15;27.40;;;;;;;18.41;86.15;100561.94;1749518;81;21546;-70
2021/07/09 02:29:33;;;;;;;35.78;26.57;;;;;;;18.41;86.17;100568.17;1779012;80;21017;-70
2021/07/09 02:32:00;;;;;;;36.30;26.25;;;;;;;18.39;86.19;100583.77;1782631;80;21268;-71
2021/07/09 02:34:27;;;;;;;36.33;28.10;;;;;;;18.40;86.24;100594.86;1772209;80;21042;-70
2021/07/09 02:36:54;;;;;;;33.75;28.40;;;;;;;18.40;86.25;100601.61;1790353;79;21030;-70
2021/07/09 02:39:21;;;;;;;32.38;27.35;;;;;;;18.42;86.28;100599.55;1763000;79;20979;-70
2021/07/09 02:41:47;;;;;;;30.97;27.58;;;;;;;18.43;86.29;100599.03;1758604;80;21019;-71
2021/07/09 02:44:13;;;;;;;31.85;28.15;;;;;;;18.43;86.31;100589.05;1758968;81;21123;-71
2021/07/09 02:46:39;;;;;;;35.08;28.57;;;;;;;18.42;86.33;100581.98;1758724;81;20955;-71
2021/07/09 02:49:05;;;;;;;38.48;28.98;;;;;;;18.41;86.33;100584.38;1785953;80;21503;-71
2021/07/09 02:51:31;;;;;;;38.25;27.82;;;;;;;18.41;86.37;100584.38;1789936;80;21463;-71
2021/07/09 02:53:57;;;;;;;37.48;27.98;;;;;;;18.41;86.39;100577.62;1765308;80;20991;-71
2021/07/09 02:56:23;;;;;;;32.42;27.50;;;;;;;18.42;86.44;100579.29;1763108;80;21495;-71
2021/07/09 02:58:49;;;;;;;35.43;28.17;;;;;;;18.42;86.46;100565.78;1748911;81;20968;-71
2021/07/09 03:01:15;;;;;;;37.67;29.32;;;;;;;18.42;86.45;100569.83;1758215;81;20998;-71
2021/07/09 03:03:41;;;;;;;40.10;27.82;;;;;;;18.42;86.49;100577.94;1758151;81;21014;-70
2021/07/09 03:06:07;;;;;;;35.05;28.32;;;;;;;18.43;86.50;100587.70;1758326;81;21007;-70
2021/07/09 03:08:33;;;;;;;39.80;30.25;;;;;;;18.45;86.53;100594.22;1765670;80;21050;-71
2021/07/09 03:11:00;;;;;;;42.27;30.50;;;;;;;18.44;86.54;100594.74;1792630;78;21497;-70
2021/07/09 03:13:26;;;;;;;36.75;29.90;;;;;;;18.44;86.56;100606.89;1764568;81;21002;-70
2021/07/09 03:15:52;;;;;;;39.30;31.05;;;;;;;18.42;86.57;100613.05;1792505;80;21041;-70
2021/07/09 03:18:18;;;;;;;47.40;31.42;;;;;;;18.44;86.61;100608.24;1778950;80;21009;-70
2021/07/09 03:20:44;;;;;;;40.12;31.75;;;;;;;18.47;86.62;100591.60;1764096;80;21127;-70
2021/07/09 03:23:12;;;;;;;42.85;33.53;;;;;;;18.45;86.62;100583.42;1764081;80;22310;-70
2021/07/09 03:25:38;;;;;;;44.85;33.70;;;;;;;18.45;86.64;100565.34;1734777;81;21055;-70
2021/07/09 03:28:04;;;;;;;48.73;32.83;;;;;;;18.44;86.70;100542.08;1767565;80;21022;-71
2021/07/09 03:30:30;;;;;;;47.17;33.58;;;;;;;18.43;86.72;100532.34;1789704;80;21050;-71
2021/07/09 03:32:56;;;;;;;45.45;33.83;;;;;;;18.42;86.75;100545.53;1743027;81;21568;-71
2021/07/09 03:35:22;;;;;;;56.35;36.20;;;;;;;18.43;86.79;100555.30;1741591;82;21480;-71
2021/07/09 03:37:48;;;;;;;48.60;33.50;;;;;;;18.44;86.83;100573.66;1731767;82;21567;-71
2021/07/09 03:40:15;;;;;;;54.30;35.20;;;;;;;18.47;86.84;100593.50;1730521;83;21041;-71
2021/07/09 03:42:41;;;;;;;44.95;32.08;;;;;;;18.50;86.87;100630.05;1711956;82;21523;-71
2021/07/09 03:45:08;;;;;;;48.85;31.55;;;;;;;18.53;86.87;100670.16;1730057;83;22062;-71
2021/07/09 03:47:34;;;;;;;48.50;33.63;;;;;;;18.53;86.85;100690.42;1716025;83;21015;-71
2021/07/09 03:50:00;;;;;;;52.40;33.10;;;;;;;18.53;86.89;100695.82;1742223;81;21014;-71
2021/07/09 03:52:26;;;;;;;44.20;31.15;;;;;;;18.52;86.88;100713.89;1733621;82;20990;-71
2021/07/09 03:54:52;;;;;;;38.45;30.05;;;;;;;18.51;86.89;100729.78;1730496;83;21009;-71
2021/07/09 03:57:18;;;;;;;46.00;30.30;;;;;;;18.50;86.93;100729.98;1712328;83;21123;-71
2021/07/09 03:59:44;;;;;;;43.05;31.30;;;;;;;18.51;86.97;100743.84;1730424;81;21490;-71
2021/07/09 04:02:10;;;;;;;37.90;28.00;;;;;;;18.52;86.99;100752.23;1712677;82;21042;-71
2021/07/09 04:04:36;;;;;;;42.93;28.45;;;;;;;18.51;87.01;100757.34;1730186;83;21037;-71
2021/07/09 04:07:02;;;;;;;41.05;27.87;;;;;;;18.48;87.03;100758.03;1711891;83;21023;-71
2021/07/09 04:09:29;;;;;;;34.18;26.15;;;;;;;18.50;87.07;100768.63;1730354;82;21459;-71
2021/07/09 04:11:55;;;;;;;26.87;23.98;;;;;;;18.49;87.09;100771.02;1715260;83;21534;-71
2021/07/09 04:14:21;;;;;;;29.05;22.50;;;;;;;18.48;87.14;100764.78;1729332;83;20983;-71
2021/07/09 04:16:47;;;;;;;29.45;22.37;;;;;;;18.47;87.14;100775.81;1741806;81;21014;-71
2021/07/09 04:19:13;;;;;;;24.18;21.60;;;;;;;18.47;87.18;100782.02;1761185;81;21059;-71
2021/07/09 04:21:39;;;;;;;30.30;21.27;;;;;;;18.48;87.20;100768.83;1758250;81;21217;-71
2021/07/09 04:24:05;;;;;;;30.25;21.75;;;;;;;18.47;87.25;100749.61;1730368;83;21050;-71
2021/07/09 04:26:32;;;;;;;28.60;22.67;;;;;;;18.47;87.26;100730.70;1731809;81;21542;-71
2021/07/09 04:46:58;;;;;;;15.45;11.40;;;;;;;18.39;87.41;100785.48;1849396;77;22649;-71
2021/07/09 04:49:25;;;;;;;11.50;10.40;;;;;;;18.34;87.45;100802.31;1800013;78;21061;-72
2021/07/09 04:51:52;;;;;;;12.73;11.00;;;;;;;18.32;87.46;100800.36;1759220;81;21046;-72
2021/07/09 04:54:18;;;;;;;13.00;10.70;;;;;;;18.31;87.48;100797.85;1759171;81;21005;-72
2021/07/09 04:56:44;;;;;;;14.43;10.28;;;;;;;18.30;87.48;100790.78;1758805;81;20903;-73
2021/07/09 04:59:10;;;;;;;10.93;9.48;;;;;;;18.27;87.50;100773.14;1759043;81;21026;-72
2021/07/09 05:01:36;;;;;;;12.13;9.20;;;;;;;18.26;87.53;100759.88;1759147;81;20970;-72
2021/07/09 05:04:04;;;;;;;11.93;10.68;;;;;;;18.24;87.55;100748.44;1759096;81;21109;-72
2021/07/09 05:06:31;;;;;;;11.97;10.80;;;;;;;18.23;87.58;100746.25;1761194;80;21038;-73
2021/07/09 05:08:57;;;;;;;12.33;11.12;;;;;;;18.22;87.60;100744.61;1759135;81;21007;-72
2021/07/09 05:11:23;;;;;;;12.45;11.18;;;;;;;18.24;87.64;100730.89;1775114;80;21519;-73
2021/07/09 05:13:49;;;;;;;13.25;11.22;;;;;;;18.25;87.65;100726.64;1766552;80;21850;-73
2021/07/09 05:16:15;;;;;;;12.30;10.55;;;;;;;18.27;87.67;100708.86;1758107;81;22829;-74
2021/07/09 05:18:41;;;;;;;17.87;9.90;;;;;;;18.26;87.69;100672.92;1772619;80;21018;-75
2021/07/09 05:21:07;;;;;;;10.98;9.55;;;;;;;18.24;87.70;100664.22;1799951;79;21003;-74
2021/07/09 05:23:33;;;;;;;11.48;9.25;;;;;;;18.24;87.72;100666.92;1767858;79;21075;-75
2021/07/09 05:25:59;;;;;;;10.30;9.00;;;;;;;18.23;87.74;100661.72;1775144;80;21062;-75
2021/07/09 05:28:26;;;;;;;12.53;10.05;;;;;;;18.23;87.76;100650.41;1749363;81;21150;-76
2021/07/09 05:30:52;;;;;;;16.20;10.53;;;;;;;18.22;87.76;100643.37;1772382;80;20990;-75
2021/07/09 05:33:18;;;;;;;11.83;10.60;;;;;;;18.22;87.78;100624.47;1771707;80;21021;-76
2021/07/09 05:35:44;;;;;;;18.12;10.28;;;;;;;18.21;87.79;100621.45;1765442;80;21481;-76
2021/07/09 05:38:11;;;;;;;13.65;9.93;;;;;;;18.21;87.79;100614.70;1787072;80;21006;-76
2021/07/09 05:40:37;;;;;;;16.42;11.63;;;;;;;18.18;87.81;100598.11;1765709;80;21170;-76
2021/07/09 05:43:03;;;;;;;13.45;10.18;;;;;;;18.17;87.85;100584.29;1756703;81;21009;-76
2021/07/09 05:45:30;;;;;;;15.90;11.83;;;;;;;18.15;87.90;100561.58;1772650;80;21066;-76
2021/07/09 05:47:56;;;;;;;13.22;11.80;;;;;;;18.15;87.95;100530.53;1793673;79;21053;-75
2021/07/09 05:50:23;;;;;;;11.08;9.90;;;;;;;18.14;87.97;100497.00;1795401;79;21026;-74
2021/07/09 05:52:49;;;;;;;8.70;7.80;;;;;;;18.13;88.00;100431.38;1770918;80;21080;-71
2021/07/09 05:55:15;;;;;;;11.38;7.45;;;;;;;18.12;88.07;100385.17;1764145;80;20984;-71
2021/07/09 05:57:41;;;;;;;9.40;7.22;;;;;;;18.11;88.17;100334.12;1763468;80;21003;-70
2021/07/09 06:00:09;;;;;;;7.78;7.08;;;;;;;18.11;88.21;100301.74;1786363;80;21006;-71
2021/07/09 06:02:36;;;;;;;7.12;6.42;;;;;;;18.10;88.30;100296.86;1771385;80;20982;-70
2021/07/09 06:05:05;;;;;;;7.50;6.75;;;;;;;18.12;88.36;100261.02;1778405;79;21136;-70
2021/07/09 06:07:31;;;;;;;6.55;5.85;;;;;;;18.14;88.42;100247.31;1777012;80;21542;-70
2021/07/09 06:09:57;;;;;;;6.95;5.55;;;;;;;18.17;88.50;100220.70;1772267;80;21006;-70
2021/07/09 06:12:23;;;;;;;4.60;4.20;;;;;;;18.22;88.55;100222.22;1775355;79;21828;-71
2021/07/09 06:14:51;;;;;;;4.85;4.35;;;;;;;18.28;88.60;100223.18;1792779;80;21026;-71
2021/07/09 06:17:18;;;;;;;5.22;3.83;;;;;;;18.35;88.61;100224.77;1791390;80;21518;-70
2021/07/09 06:19:44;;;;;;;4.60;3.25;;;;;;;18.43;88.62;100223.13;1792854;80;20995;-71
2021/07/09 06:22:10;;;;;;;4.08;3.67;;;;;;;18.53;88.61;100232.59;1772622;80;21536;-71
2021/07/09 06:24:36;;;;;;;4.67;3.95;;;;;;;18.62;88.59;100242.03;1766669;80;21550;-71
2021/07/09 06:27:03;;;;;;;5.42;4.92;;;;;;;18.67;88.55;100253.83;1786444;79;20995;-70
2021/07/09 06:29:29;;;;;;;6.20;5.60;;;;;;;18.69;88.55;100268.44;1776743;80;21098;-70
2021/07/09 06:31:55;;;;;;;6.95;6.10;;;;;;;18.69;88.54;100278.73;1775285;80;21002;-70
2021/07/09 06:34:21;;;;;;;7.22;6.55;;;;;;;18.69;88.50;100298.16;1794706;79;21033;-70
2021/07/09 06:36:47;;;;;;;6.83;6.12;;;;;;;18.70;88.50;100309.27;1767640;79;21444;-70
2021/07/09 06:39:13;;;;;;;7.58;6.87;;;;;;;18.71;88.50;100320.39;1783239;80;21034;-71
2021/07/09 06:41:39;;;;;;;7.80;7.00;;;;;;;18.74;88.47;100347.78;1768064;80;21264;-71
2021/07/09 06:44:05;;;;;;;10.32;9.33;;;;;;;18.80;88.47;100380.66;1776453;80;21023;-71
2021/07/09 06:46:31;;;;;;;10.10;8.73;;;;;;;18.86;88.42;100397.84;1782679;79;21012;-71
2021/07/09 06:48:58;;;;;;;7.40;6.12;;;;;;;18.91;88.41;100391.25;1766947;81;21021;-71
2021/07/09 06:51:24;;;;;;;8.65;7.50;;;;;;;18.98;88.42;100387.95;1767102;81;21010;-71
2021/07/09 06:53:50;;;;;;;6.42;5.50;;;;;;;19.05;88.41;100394.11;1767607;79;21413;-71
2021/07/09 06:56:16;;;;;;;6.33;5.67;;;;;;;19.20;88.38;100396.44;1783310;78;21063;-71
2021/07/09 06:58:42;;;;;;;6.37;4.53;;;;;;;19.35;88.37;100401.75;1782661;80;21000;-70
2021/07/09 07:01:09;;;;;;;5.45;4.50;;;;;;;19.44;88.27;100407.20;1819558;78;20980;-71
2021/07/09 07:03:35;;;;;;;5.00;4.40;;;;;;;19.52;88.25;100412.00;1820734;78;20936;-71
2021/07/09 07:06:01;;;;;;;5.70;4.72;;;;;;;19.67;88.19;100426.76;1810811;78;21663;-71
2021/07/09 07:08:27;;;;;;;5.45;4.70;;;;;;;19.85;88.19;100436.72;1782781;79;21561;-71
2021/07/09 07:10:54;;;;;;;4.80;4.40;;;;;;;19.96;88.09;100445.42;1766885;81;21395;-71
2021/07/09 07:13:23;;;;;;;4.92;4.47;;;;;;;20.05;88.08;100452.17;1764931;81;21125;-69
2021/07/09 07:15:49;;;;;;;4.13;3.73;;;;;;;20.14;88.04;100458.91;1764921;81;21022;-69
2021/07/09 07:18:15;;;;;;;4.50;4.10;;;;;;;20.25;87.97;100452.70;1765047;80;21667;-69
2021/07/09 07:20:44;;;;;;;4.97;3.05;;;;;;;20.29;87.91;100451.22;1764902;80;21006;-69
2021/07/09 07:23:13;;;;;;;6.28;3.85;;;;;;;20.33;87.85;100460.53;1767265;79;21049;-69
2021/07/09 07:25:39;;;;;;;4.62;3.50;;;;;;;20.32;87.77;100466.17;1775200;79;20994;-70
2021/07/09 07:28:05;;;;;;;5.08;3.42;;;;;;;20.30;87.77;100471.81;1787873;79;21002;-70
2021/07/09 07:30:31;;;;;;;5.80;3.30;;;;;;;20.34;87.80;100467.58;1777806;79;21793;-69
2021/07/09 07:32:57;;;;;;;4.75;3.20;;;;;;;20.42;87.80;100467.25;1790283;79;21042;-70
2021/07/09 07:35:24;;;;;;;3.70;3.40;;;;;;;20.44;87.74;100470.55;1772555;79;21395;-69
2021/07/09 07:37:50;;;;;;;3.30;3.00;;;;;;;20.41;87.69;100479.14;1767891;79;21057;-69
2021/07/09 07:40:16;;;;;;;3.92;3.05;;;;;;;20.48;87.66;100488.52;1766492;81;21033;-69
2021/07/09 07:42:43;;;;;;;3.98;3.42;;;;;;;20.55;87.55;100501.99;1766515;80;21846;-69
2021/07/09 07:45:10;;;;;;;5.65;4.80;;;;;;;20.57;87.47;100502.57;1776924;79;21396;-69
2021/07/09 07:47:36;;;;;;;4.53;4.12;;;;;;;20.61;87.45;100493.75;1789937;79;21015;-69
2021/07/09 07:50:03;;;;;;;4.12;3.20;;;;;;;20.68;87.42;100467.89;1783080;80;21050;-69
2021/07/09 07:52:29;;;;;;;3.47;3.05;;;;;;;20.70;87.35;100454.92;1746754;81;21088;-69
2021/07/09 07:54:55;;;;;;;3.70;3.37;;;;;;;20.65;87.29;100457.00;1746760;82;22402;-69
2021/07/09 07:57:21;;;;;;;5.03;4.53;;;;;;;20.65;87.23;100466.48;1746934;80;21104;-69
2021/07/09 07:59:47;;;;;;;5.53;4.95;;;;;;;20.80;87.25;100476.84;1747307;81;20987;-69
2021/07/09 08:02:13;;;;;;;6.87;5.72;;;;;;;20.97;87.17;100495.41;1746939;81;20977;-69
2021/07/09 08:04:42;;;;;;;8.08;6.50;;;;;;;21.11;87.15;100498.22;1747062;82;21626;-69
2021/07/09 08:07:10;;;;;;;7.60;6.90;;;;;;;21.20;87.16;100494.11;1751354;80;21872;-69
2021/07/09 08:09:36;;;;;;;8.18;7.30;;;;;;;21.31;87.20;100498.70;1760660;78;20992;-69
2021/07/09 08:12:03;;;;;;;7.95;7.22;;;;;;;21.35;87.17;100493.63;1758011;80;21003;-69
2021/07/09 08:14:29;;;;;;;8.63;7.67;;;;;;;21.35;87.26;100490.91;1757686;81;20994;-69
2021/07/09 08:16:55;;;;;;;9.43;8.28;;;;;;;21.30;87.26;100479.41;1760473;80;21035;-69
2021/07/09 08:19:21;;;;;;;8.38;7.58;;;;;;;21.29;87.35;100483.17;1763163;80;21830;-69
2021/07/09 08:21:48;;;;;;;9.08;8.28;;;;;;;21.17;87.40;100491.88;1773008;80;21461;-69
2021/07/09 08:24:15;;;;;;;10.58;9.08;;;;;;;21.00;87.46;100504.98;1768480;80;21504;-69
2021/07/09 08:26:41;;;;;;;10.82;9.73;;;;;;;20.81;87.56;100519.16;1773519;80;20990;-69
2021/07/09 08:29:07;;;;;;;10.75;8.80;;;;;;;20.71;87.67;100528.41;1765402;80;21005;-69
2021/07/09 08:31:33;;;;;;;10.35;9.30;;;;;;;20.61;87.74;100514.08;1761158;80;21758;-70
2021/07/09 08:33:59;;;;;;;8.85;7.87;;;;;;;20.55;87.85;100510.12;1766420;80;21338;-69
2021/07/09 08:36:25;;;;;;;9.95;8.93;;;;;;;20.50;87.99;100504.03;1752039;81;21644;-69
2021/07/09 08:38:52;;;;;;;11.25;8.73;;;;;;;20.56;88.16;100508.52;1738039;81;21006;-69
2021/07/09 08:41:19;;;;;;;11.20;8.80;;;;;;;20.63;88.25;100532.27;1761528;80;21016;-69
2021/07/09 08:43:45;;;;;;;12.95;9.83;;;;;;;20.69;88.25;100575.27;1757739;81;21975;-69
2021/07/09 08:46:12;;;;;;;18.25;12.65;;;;;;;20.78;88.32;100576.56;1757760;81;21155;-69
2021/07/09 08:48:38;;;;;;;9.55;8.65;;;;;;;20.89;88.35;100564.92;1758580;81;21000;-69
2021/07/09 08:51:04;;;;;;;9.83;8.65;;;;;;;21.09;88.46;100556.45;1719120;81;21536;-69
2021/07/09 08:53:30;;;;;;;9.38;8.48;;;;;;;21.57;88.58;100561.69;1758794;80;20935;-69
2021/07/09 08:55:56;;;;;;;10.75;9.73;;;;;;;21.89;88.40;100556.94;1780653;80;21844;-69
2021/07/09 08:58:22;;;;;;;12.30;11.10;;;;;;;21.92;88.26;100558.94;1788698;78;21050;-69
2021/07/09 09:00:48;;;;;;;11.12;10.03;;;;;;;21.81;88.24;100560.58;1758091;79;21031;-69
2021/07/09 09:03:20;;;;;;;15.88;10.90;;;;;;;21.80;88.36;100571.14;1764086;80;20995;-69
2021/07/09 09:05:47;;;;;;;11.45;10.25;;;;;;;21.80;88.43;100567.06;1761067;80;21022;-69
2021/07/09 09:08:16;;;;;;;23.32;13.45;;;;;;;21.83;88.49;100547.58;1781746;79;22514;-69
2021/07/09 09:10:47;;;;;;;17.05;14.98;;;;;;;21.92;88.46;100537.20;1758709;79;21004;-70
2021/07/09 09:13:21;;;;;;;15.23;13.65;;;;;;;22.00;88.45;100538.99;1757957;81;21040;-69
2021/07/09 09:16:11;;;;;;;13.45;11.38;;;;;;;22.13;88.55;100552.29;1756747;81;21015;-69
2021/07/09 09:18:43;;;;;;;12.23;11.10;;;;;;;22.24;88.51;100539.20;1757578;81;21467;-69
2021/07/09 09:21:11;;;;;;;12.43;11.28;;;;;;;22.39;88.49;100528.63;1765119;80;22430;-70
2021/07/09 09:23:52;;;;;;;15.23;12.28;;;;;;;22.62;88.48;100530.93;1789025;79;21007;-69
2021/07/09 09:26:43;;;;;;;16.05;12.60;;;;;;;22.62;88.39;100533.65;1782300;80;21049;-69
2021/07/09 09:29:12;;;;;;;14.98;13.48;;;;;;;22.56;88.34;100527.28;1789029;80;20923;-72
2021/07/09 09:31:40;;;;;;;13.98;12.10;;;;;;;22.52;88.45;100533.47;1782718;79;21121;-71
2021/07/09 09:34:06;;;;;;;11.28;10.15;;;;;;;22.40;88.45;100542.51;1764103;79;21813;-72
2021/07/09 09:36:33;;;;;;;9.28;8.38;;;;;;;22.23;88.43;100548.44;1785906;80;21531;-71
2021/07/09 09:39:02;;;;;;;10.78;9.00;;;;;;;22.22;88.46;100548.66;1786721;80;21481;-71
2021/07/09 09:41:27;;;;;;;11.43;9.50;;;;;;;22.27;88.49;100541.42;1770212;79;21356;-72
2021/07/09 09:43:53;;;;;;;13.83;8.68;;;;;;;22.24;88.33;100539.20;1757853;81;21411;-72
2021/07/09 09:46:28;;;;;;;9.13;8.23;;;;;;;22.31;88.44;100539.05;1757223;80;22421;-72
2021/07/09 09:48:54;;;;;;;8.10;7.40;;;;;;;22.39;88.49;100536.77;1768246;80;20999;-73
2021/07/09 09:51:36;;;;;;;12.68;8.00;;;;;;;22.35;88.44;100512.50;1786032;79;21015;-73
2021/07/09 09:54:06;;;;;;;10.65;8.15;;;;;;;22.41;88.52;100503.37;1758279;80;21047;-73
2021/07/09 09:56:43;;;;;;;9.20;8.35;;;;;;;22.50;88.42;100502.98;1787404;79;22103;-72
2021/07/09 09:59:22;;;;;;;10.30;9.15;;;;;;;22.55;88.35;100497.64;1788712;80;21784;-72
2021/07/09 10:01:52;;;;;;;10.58;8.95;;;;;;;22.64;88.41;100500.23;1789181;80;21014;-72
2021/07/09 10:04:18;;;;;;;10.23;8.83;;;;;;;22.70;88.37;100519.66;1757967;81;20994;-73
2021/07/09 10:06:44;;;;;;;10.58;9.48;;;;;;;22.69;88.32;100527.55;1789278;80;21526;-73
2021/07/09 10:09:12;;;;;;;9.05;8.23;;;;;;;22.55;88.26;100520.75;1789329;80;21890;-73
2021/07/09 10:11:39;;;;;;;11.78;10.58;;;;;;;22.44;88.31;100530.61;1788685;80;21826;-74
2021/07/09 10:14:13;;;;;;;11.75;10.65;;;;;;;22.47;88.39;100545.60;1789183;80;21502;-72
2021/07/09 10:16:41;;;;;;;11.05;9.98;;;;;;;22.58;88.39;100531.13;1756324;81;21062;-73
2021/07/09 10:19:09;;;;;;;10.88;9.88;;;;;;;22.73;88.40;100543.11;1789156;79;20987;-73
2021/07/09 10:21:39;;;;;;;12.95;11.00;;;;;;;23.00;88.37;100556.91;1789209;80;21392;-73
2021/07/09 10:24:07;;;;;;;9.45;8.58;;;;;;;23.16;88.21;100558.78;1787912;79;22560;-73
2021/07/09 10:26:36;;;;;;;10.68;9.55;;;;;;;23.03;88.09;100560.48;1788923;79;20995;-73
2021/07/09 10:29:13;;;;;;;11.95;8.55;;;;;;;22.84;88.14;100549.54;1788623;79;21049;-73
2021/07/09 10:31:41;;;;;;;7.35;6.75;;;;;;;22.86;88.27;100548.78;1788545;79;20995;-73
2021/07/09 10:34:41;;;;;;;6.78;6.17;;;;;;;22.72;88.28;100549.64;1789003;79;21026;-73
2021/07/09 10:37:22;;;;;;;8.60;7.83;;;;;;;22.54;88.31;100532.16;1789128;79;21814;-73
2021/07/09 10:39:55;;;;;;;7.83;6.50;;;;;;;22.50;88.37;100531.52;1789122;80;21266;-73
2021/07/09 10:42:27;;;;;;;7.37;6.70;;;;;;;22.48;88.37;100527.70;1769106;80;20982;-73
2021/07/09 10:45:09;;;;;;;9.48;8.55;;;;;;;22.43;88.39;100537.64;1789245;79;21065;-73
2021/07/09 10:47:39;;;;;;;8.30;7.58;;;;;;;22.41;88.44;100533.83;1788664;79;20991;-73
2021/07/09 10:50:08;;;;;;;9.05;8.20;;;;;;;22.45;88.45;100542.31;1789228;79;21899;-73
2021/07/09 10:52:57;;;;;;;7.83;7.03;;;;;;;22.41;88.46;100539.26;1788807;79;20942;-74
2021/07/09 10:55:30;;;;;;;;;;;;;;;22.33;88.41;100530.13;1791754;80;20987;-73
2021/07/09 10:58:23;;;;;;;9.00;7.47;;;;;;;22.31;88.41;100526.28;1788946;79;20173;-73
2021/07/09 11:01:11;;;;;;;11.53;9.08;;;;;;;22.37;88.45;100519.90;1787655;79;20957;-73
2021/07/09 11:03:57;;;;;;;10.95;9.75;;;;;;;22.37;88.45;100511.74;1770915;80;21846;-73
2021/07/09 11:06:36;;;;;;;13.15;10.50;;;;;;;22.47;88.46;100502.94;1789081;80;21042;-73
2021/07/09 11:09:07;;;;;;;11.38;8.73;;;;;;;22.62;88.51;100499.66;1771384;80;21042;-73
2021/07/09 11:11:43;;;;;;;9.93;8.55;;;;;;;22.71;88.49;100506.36;1789135;78;21007;-73
2021/07/09 11:14:13;;;;;;;9.75;8.33;;;;;;;22.64;88.50;100494.26;1789205;79;21014;-73
2021/07/09 11:16:48;;;;;;;9.73;8.80;;;;;;;22.57;88.46;100499.56;1788916;78;21749;-73
2021/07/09 11:19:18;;;;;;;9.40;8.43;;;;;;;22.63;88.58;100498.57;1787841;79;21363;-73
2021/07/09 11:21:51;;;;;;;11.85;9.83;;;;;;;22.83;88.55;100496.23;1788828;79;21460;-73
2021/07/09 11:24:24;;;;;;;11.40;10.28;;;;;;;23.04;88.58;100491.41;1789123;80;20963;-73
2021/07/09 11:26:55;;;;;;;9.23;8.40;;;;;;;23.44;88.71;100483.53;1788613;79;21431;-74
2021/07/09 11:29:44;;;;;;;9.98;9.00;;;;;;;24.09;88.65;100487.06;1789061;80;21757;-74
2021/07/09 11:32:15;;;;;;;8.93;8.13;;;;;;;24.31;88.27;100485.13;1788056;79;21030;-74
2021/07/09 11:34:47;;;;;;;11.22;8.28;;;;;;;24.18;88.12;100482.82;1788840;79;20995;-73
2021/07/09 11:37:19;;;;;;;8.68;7.85;;;;;;;23.83;88.19;100485.95;1789179;80;21050;-74
2021/07/09 11:39:48;;;;;;;8.58;7.47;;;;;;;23.71;88.23;100476.28;1787797;79;21003;-73